METAR Data
IDs: Format: Raw Decoded Include TAF

Data at: 0139 UTC 31 May 2020

Region: TOP
KATL 310052Z 33007KT 10SM FEW055 FEW250 26/16 A3003 RMK AO2 SLP158 MDT CU S T02610156

KBOS 310054Z 27005KT 10SM FEW110 23/08 A2981 RMK AO2 SLP093 T02330083

KBWI 310054Z 31004KT 10SM SCT085 SCT100 SCT250 23/11 A2994 RMK AO2 SLP135 T02330111

KCLE 310051Z 35003KT 10SM SCT080 17/06 A3012 RMK AO2 SLP198 T01720061 $

KCLT 310052Z 01003KT 10SM BKN075 24/18 A2997 RMK AO2 SLP141 T02440183

KCVG 310052Z 35008KT 10SM FEW060 19/08 A3013 RMK AO2 SLP197 T01940083 $

KDCA 310052Z 30004KT 10SM SCT100 SCT250 26/11 A2995 RMK AO2 SLP141 T02560106

KDEN 310053Z 10006KT 10SM BKN080 BKN140 BKN220 24/12 A3014 RMK AO2 SLP136 T02440122

KDFW 310053Z 10007KT 10SM FEW065 FEW300 27/14 A3005 RMK AO2 SLP169 T02720144 $

KDTW 310053Z 34009KT 10SM BKN060 17/06 A3012 RMK AO2 SLP199 T01720056

KEWR 310051Z 27009KT 10SM FEW075 BKN090 25/09 A2988 RMK AO2 SLP116 T02500089

KFLL 310053Z 13010KT 10SM FEW027 SCT100 BKN150 BKN250 28/23 A3000 RMK AO2 SLP157 T02830228

KIAD 310052Z 33008KT 10SM FEW100 24/09 A2997 RMK AO2 SLP144 T02390094

KIAH 310053Z 06007KT 10SM FEW040 FEW100 BKN250 29/19 A3000 RMK AO2 SLP158 TCU DSNT SE T02890194

KJFK 310051Z 24006KT 10SM BKN090 BKN120 19/15 A2988 RMK AO2 SLP119 T01940150

KLAS 310056Z 24015G23KT 10SM FEW150 BKN250 32/M04 A2974 RMK AO2 SLP042 ACSL DSNT SW AND DSNT NW T03221044

KLAX 310053Z 27018KT 10SM SCT025 BKN220 19/14 A2994 RMK AO2 SLP138 T01890139

KLGA 310051Z 28011KT 10SM FEW080 BKN100 BKN250 26/09 A2987 RMK AO2 SLP114 T02560089

KMCO 310053Z 18006KT 6SM -TSRA BR SCT020 OVC038CB 23/22 A3002 RMK AO2 LTG DSNT SE-W SLP163 CONS LTGICCG ALQDS TS ALQDS MOV SE P0116 T02280217 $

KMDW 310053Z 07010KT 10SM FEW005 FEW070 16/07 A3019 RMK AO2 SLP221 FU FEW005 T01610072 $

KMEM 310054Z 03010KT 10SM CLR 25/06 A3011 RMK AO2 SLP191 T02500056

KMIA 310053Z 09011KT 10SM FEW030 FEW110 BKN250 28/22 A3001 RMK AO2 SLP161 CB DSNT W-NW T02780217

KMSP 310053Z 03005KT 10SM CLR 18/M02 A3024 RMK AO2 SLP239 T01781022

KORD 310051Z 08009KT 10SM FEW070 17/07 A3019 RMK AO2 SLP222 T01670072 $

KPDX 310053Z 00000KT 10SM FEW035 SCT050 BKN070 13/10 A2994 RMK AO2 RAE02 SLP138 P0000 T01330100

KPHL 310054Z 29007KT 10SM SCT110 25/10 A2992 RMK AO2 SLP132 T02500100

KPHX 310051Z 28012KT 10SM FEW100 FEW150 SCT200 SCT250 42/07 A2965 RMK AO2 SLP016 CB DSNT SE T04170072

KPIT 310051Z 33008KT 10SM FEW065 17/06 A3009 RMK AO2 SLP196 T01670061 $

KSAN 310051Z 32009KT 10SM FEW025 FEW160 SCT200 SCT250 22/13 A2994 RMK AO2 SLP138 ACSL DSNT NE T02170133

KSEA 310133Z 20011KT 3SM -RA BR BKN007 BKN049 OVC090 12/11 A2990 RMK AO2 P0011 T01170106

KSFO 310056Z 21012KT 10SM FEW017 BKN060 BKN180 19/12 A2991 RMK AO2 SLP129 T01940122

KSLC 310054Z 13011KT 10SM FEW100 BKN150 OVC210 29/08 A2983 RMK AO2 PK WND 19039/2355 LTG DSNT NE AND SE RAE11 SLP036 CB DSNT NE-SE AND S-NW SH DSNT ALQDS BINOVC P0000 T02940078

KSTL 310051Z 33008KT 10SM BKN150 BKN250 22/11 A3018 RMK AO2 SLP213 T02220106

KTPA 310053Z 32005KT 10SM SCT230 28/20 A3001 RMK AO2 SLP160 T02780200